createdAt,value
2022-12-24T00:01:59.383Z,100.00
2022-12-24T00:04:20.878Z,100.00
2022-12-24T00:06:42.354Z,100.00
2022-12-24T00:09:04.329Z,100.00
2022-12-24T00:11:25.805Z,100.00
2022-12-24T00:13:47.493Z,100.00
2022-12-24T00:16:09.008Z,100.00
2022-12-24T00:18:30.696Z,100.00
2022-12-24T00:20:52.694Z,100.00
2022-12-24T00:23:15.239Z,100.00
2022-12-24T00:25:36.740Z,100.00
2022-12-24T00:27:58.216Z,100.00
2022-12-24T00:30:19.661Z,100.00
2022-12-24T00:32:41.099Z,100.00
2022-12-24T00:35:02.552Z,100.00
2022-12-24T00:37:24.030Z,100.00
2022-12-24T00:39:45.467Z,100.00
2022-12-24T00:42:06.937Z,100.00
2022-12-24T00:44:28.660Z,100.00
2022-12-24T00:46:51.028Z,100.00
2022-12-24T00:49:12.773Z,100.00
2022-12-24T00:51:35.970Z,100.00
2022-12-24T00:53:57.561Z,100.00
2022-12-24T00:56:19.760Z,100.00
2022-12-24T00:58:41.455Z,100.00
2022-12-24T01:01:03.365Z,100.00
2022-12-24T01:03:34.739Z,100.00
2022-12-24T01:05:56.261Z,100.00
2022-12-24T01:08:17.740Z,100.00
2022-12-24T01:10:39.168Z,100.00
2022-12-24T01:13:03.821Z,100.00
2022-12-24T01:15:25.255Z,100.00
2022-12-24T01:17:46.731Z,100.00
2022-12-24T01:20:14.241Z,100.00
2022-12-24T01:22:36.047Z,100.00
2022-12-24T01:24:57.506Z,100.00
2022-12-24T01:27:19.091Z,100.00
2022-12-24T01:29:40.527Z,99.62
2022-12-24T01:32:01.993Z,99.64
2022-12-24T01:34:23.443Z,98.70
2022-12-24T01:36:44.869Z,99.24
2022-12-24T01:39:06.415Z,98.24
2022-12-24T01:41:46.308Z,98.46
2022-12-24T01:44:35.186Z,98.61
2022-12-24T01:46:57.824Z,98.05
2022-12-24T01:49:19.772Z,98.77
2022-12-24T01:51:52.356Z,98.21
2022-12-24T01:54:13.761Z,97.28
2022-12-24T01:56:40.242Z,97.58
2022-12-24T01:59:08.354Z,97.61
2022-12-24T02:01:30.613Z,97.68
2022-12-24T02:03:52.380Z,97.11
2022-12-24T02:06:18.356Z,96.62
2022-12-24T02:08:42.879Z,95.78
2022-12-24T02:11:09.862Z,95.23
2022-12-24T02:13:31.313Z,95.32
2022-12-24T02:16:02.188Z,95.13
2022-12-24T02:18:43.385Z,94.20
2022-12-24T02:21:52.034Z,93.80
2022-12-24T02:24:54.946Z,93.20
2022-12-24T02:27:42.158Z,92.76
2022-12-24T02:30:19.858Z,93.20
2022-12-24T02:32:44.918Z,93.89
2022-12-24T02:35:15.900Z,92.22
2022-12-24T02:37:43.495Z,92.49
2022-12-24T02:40:31.575Z,91.69
2022-12-24T02:43:01.077Z,91.79
2022-12-24T02:45:29.152Z,91.86
2022-12-24T02:47:52.327Z,92.54
2022-12-24T02:50:15.675Z,91.51
2022-12-24T02:52:42.658Z,90.70
2022-12-24T02:55:27.042Z,90.72
2022-12-24T02:58:22.655Z,90.55
2022-12-24T03:00:56.425Z,89.30
2022-12-24T03:03:46.020Z,89.81
2022-12-24T03:06:23.780Z,89.97
2022-12-24T03:09:00.263Z,89.86
2022-12-24T03:11:21.954Z,90.10
2022-12-24T03:13:44.510Z,89.70
2022-12-24T03:16:17.304Z,89.38
2022-12-24T03:18:42.490Z,89.69
2022-12-24T03:21:10.015Z,88.27
2022-12-24T03:23:31.621Z,88.89
2022-12-24T03:25:53.355Z,88.67
2022-12-24T03:28:17.995Z,88.20
2022-12-24T03:30:41.535Z,87.29
2022-12-24T03:33:03.022Z,88.42
2022-12-24T03:35:24.485Z,90.59
2022-12-24T03:37:46.012Z,91.83
2022-12-24T03:40:08.254Z,92.67
2022-12-24T03:42:29.743Z,92.76
2022-12-24T03:44:51.177Z,93.69
2022-12-24T03:47:12.937Z,96.02
2022-12-24T03:49:34.403Z,97.86
2022-12-24T03:51:55.807Z,98.51
2022-12-24T03:54:17.260Z,97.74
2022-12-24T03:56:38.700Z,97.62
2022-12-24T03:59:00.153Z,99.34
2022-12-24T04:01:21.722Z,100.00
2022-12-24T04:03:43.933Z,100.00
2022-12-24T04:06:11.271Z,100.00
2022-12-24T04:08:32.887Z,100.00
2022-12-24T04:10:54.358Z,100.00
2022-12-24T04:13:15.814Z,100.00
2022-12-24T04:15:37.263Z,100.00
2022-12-24T04:17:58.726Z,100.00
2022-12-24T04:20:20.147Z,100.00
2022-12-24T04:22:42.249Z,100.00
2022-12-24T04:25:03.835Z,100.00
2022-12-24T04:27:30.066Z,100.00
2022-12-24T04:29:52.355Z,100.00
2022-12-24T04:32:13.900Z,100.00
2022-12-24T04:34:35.669Z,100.00
2022-12-24T04:36:57.074Z,100.00
2022-12-24T04:39:18.599Z,100.00
2022-12-24T04:41:40.031Z,100.00
2022-12-24T04:44:01.512Z,100.00
2022-12-24T04:46:30.608Z,100.00
2022-12-24T04:48:54.462Z,100.00
2022-12-24T04:51:17.056Z,100.00
2022-12-24T04:53:39.367Z,100.00
2022-12-24T04:56:01.396Z,100.00
2022-12-24T04:58:22.840Z,100.00
2022-12-24T05:00:44.283Z,100.00
2022-12-24T05:03:05.778Z,99.55
2022-12-24T05:05:27.210Z,99.33
2022-12-24T05:07:48.700Z,97.09
2022-12-24T05:10:11.119Z,97.08
2022-12-24T05:12:32.775Z,97.27
2022-12-24T05:14:54.244Z,96.20
2022-12-24T05:17:15.793Z,96.65
2022-12-24T05:19:37.344Z,97.35
2022-12-24T05:22:17.414Z,97.23
2022-12-24T05:24:57.525Z,98.00
2022-12-24T05:27:19.051Z,97.44
2022-12-24T05:29:40.486Z,97.94
2022-12-24T05:32:01.963Z,98.87
2022-12-24T05:34:23.470Z,98.74
2022-12-24T05:36:45.094Z,98.48
2022-12-24T05:39:11.454Z,98.95
2022-12-24T05:41:36.719Z,99.18
2022-12-24T05:43:58.408Z,98.01
2022-12-24T05:46:22.085Z,98.77
2022-12-24T05:48:43.638Z,98.42
2022-12-24T05:51:07.563Z,98.71
2022-12-24T05:53:28.998Z,98.71
2022-12-24T05:55:50.837Z,98.58
2022-12-24T05:58:12.901Z,99.68
2022-12-24T06:00:34.433Z,100.00
2022-12-24T06:02:55.957Z,100.00
2022-12-24T06:05:17.461Z,100.00
2022-12-24T06:07:38.912Z,100.00
2022-12-24T06:10:00.436Z,100.00
2022-12-24T06:12:21.903Z,100.00
2022-12-24T06:14:43.331Z,100.00
2022-12-24T06:17:04.778Z,100.00
2022-12-24T06:19:26.333Z,100.00
2022-12-24T06:21:47.894Z,100.00
2022-12-24T06:24:09.368Z,100.00
2022-12-24T06:26:30.811Z,100.00
2022-12-24T06:28:52.421Z,100.00
2022-12-24T06:31:16.952Z,100.00
2022-12-24T06:33:38.762Z,100.00
2022-12-24T06:36:00.788Z,100.00
2022-12-24T06:38:22.372Z,100.00
2022-12-24T06:40:45.180Z,100.00
2022-12-24T06:43:06.670Z,100.00
2022-12-24T06:45:28.097Z,100.00
2022-12-24T06:47:49.669Z,100.00
2022-12-24T06:50:11.645Z,100.00
2022-12-24T06:52:33.175Z,100.00
2022-12-24T06:54:54.628Z,100.00
2022-12-24T06:57:16.091Z,100.00
2022-12-24T06:59:37.538Z,100.00
2022-12-24T07:01:59.196Z,100.00
2022-12-24T07:04:20.909Z,100.00
2022-12-24T07:06:42.423Z,100.00
2022-12-24T07:09:04.071Z,100.00
2022-12-24T07:11:25.918Z,100.00
2022-12-24T07:13:47.698Z,100.00
2022-12-24T07:16:09.767Z,100.00
2022-12-24T07:18:31.819Z,100.00
2022-12-24T07:20:53.375Z,100.00
2022-12-24T07:23:14.832Z,100.00
2022-12-24T07:25:36.266Z,100.00
2022-12-24T07:27:57.718Z,100.00
2022-12-24T07:30:19.217Z,100.00
2022-12-24T07:32:40.651Z,100.00
2022-12-24T07:35:02.177Z,100.00
2022-12-24T07:37:23.643Z,100.00
2022-12-24T07:39:45.230Z,100.00
2022-12-24T07:42:08.139Z,100.00
2022-12-24T07:44:29.678Z,100.00
2022-12-24T07:46:51.522Z,100.00
2022-12-24T07:49:13.128Z,100.00
2022-12-24T07:51:34.583Z,100.00
2022-12-24T07:53:56.068Z,100.00
2022-12-24T07:56:17.564Z,100.00
2022-12-24T07:58:39.068Z,100.00
2022-12-24T08:01:00.731Z,100.00
2022-12-24T08:03:22.500Z,100.00
2022-12-24T08:05:44.588Z,100.00
2022-12-24T08:08:06.030Z,100.00
2022-12-24T08:10:27.590Z,100.00
2022-12-24T08:12:50.147Z,100.00
2022-12-24T08:15:12.185Z,100.00
2022-12-24T08:17:33.659Z,100.00
2022-12-24T08:19:55.134Z,100.00
2022-12-24T08:22:16.595Z,100.00
2022-12-24T08:24:38.050Z,100.00
2022-12-24T08:26:59.499Z,100.00
2022-12-24T08:29:21.049Z,100.00
2022-12-24T08:31:42.616Z,100.00
2022-12-24T08:34:05.536Z,100.00
2022-12-24T08:36:26.982Z,100.00
2022-12-24T08:38:48.532Z,100.00
2022-12-24T08:41:10.005Z,100.00
2022-12-24T08:43:31.605Z,100.00
2022-12-24T08:45:53.472Z,100.00
2022-12-24T08:48:14.967Z,100.00
2022-12-24T08:50:39.299Z,100.00
2022-12-24T08:53:00.804Z,100.00
2022-12-24T08:55:22.288Z,100.00
2022-12-24T08:57:43.748Z,100.00
2022-12-24T09:00:07.909Z,100.00
2022-12-24T09:02:29.455Z,100.00
2022-12-24T09:04:51.110Z,100.00
2022-12-24T09:07:12.668Z,100.00
2022-12-24T09:09:37.842Z,100.00
2022-12-24T09:11:59.839Z,100.00
2022-12-24T09:14:21.288Z,100.00
2022-12-24T09:16:42.751Z,100.00
2022-12-24T09:19:04.303Z,100.00
2022-12-24T09:21:26.056Z,100.00
2022-12-24T09:23:48.204Z,100.00
2022-12-24T09:26:13.890Z,100.00
2022-12-24T09:28:35.844Z,100.00
2022-12-24T09:30:59.182Z,100.00
2022-12-24T09:33:20.610Z,100.00
2022-12-24T09:35:42.044Z,100.00
2022-12-24T09:38:04.299Z,100.00
2022-12-24T09:40:38.004Z,100.00
2022-12-24T09:43:00.589Z,100.00
2022-12-24T09:45:28.721Z,100.00
2022-12-24T09:47:58.445Z,100.00
2022-12-24T09:50:29.163Z,100.00
2022-12-24T09:52:52.484Z,100.00
2022-12-24T09:55:30.563Z,100.00
2022-12-24T09:57:54.482Z,100.00
2022-12-24T10:00:35.784Z,100.00
2022-12-24T10:02:57.709Z,100.00
2022-12-24T10:05:36.951Z,100.00
2022-12-24T10:08:11.122Z,100.00
2022-12-24T10:10:55.283Z,100.00
2022-12-24T10:13:23.893Z,100.00
2022-12-24T10:16:01.989Z,100.00
2022-12-24T10:18:52.703Z,100.00
2022-12-24T10:21:40.606Z,100.00
2022-12-24T10:24:35.326Z,100.00
2022-12-24T10:27:16.844Z,100.00
2022-12-24T10:29:42.552Z,100.00
2022-12-24T10:32:09.763Z,100.00
2022-12-24T10:34:40.158Z,100.00
2022-12-24T10:37:04.367Z,100.00
2022-12-24T10:39:27.268Z,100.00
2022-12-24T10:41:51.670Z,100.00
2022-12-24T10:44:19.172Z,100.00
2022-12-24T10:46:40.813Z,100.00
2022-12-24T10:49:08.569Z,100.00
2022-12-24T10:51:48.541Z,100.00
2022-12-24T10:54:17.303Z,99.47
2022-12-24T10:56:47.921Z,99.02
2022-12-24T10:59:31.559Z,98.73
2022-12-24T11:01:53.881Z,98.41
2022-12-24T11:04:24.291Z,98.49
2022-12-24T11:07:01.595Z,98.07
2022-12-24T11:09:32.500Z,99.02
2022-12-24T11:11:56.185Z,99.51
2022-12-24T11:14:21.157Z,97.49
2022-12-24T11:16:50.695Z,98.04
2022-12-24T11:19:18.667Z,97.82
2022-12-24T11:21:41.380Z,98.83
2022-12-24T11:24:24.038Z,98.76
2022-12-24T11:26:45.641Z,98.45
2022-12-24T11:29:19.347Z,98.48
2022-12-24T11:31:42.647Z,99.32
2022-12-24T11:34:23.437Z,98.31
2022-12-24T11:36:45.003Z,98.43
2022-12-24T11:39:06.581Z,98.21
2022-12-24T11:41:37.343Z,97.99
2022-12-24T11:44:03.829Z,97.27
2022-12-24T11:46:28.180Z,95.68
2022-12-24T11:49:08.095Z,98.20
2022-12-24T11:51:29.972Z,97.54
2022-12-24T11:54:10.104Z,97.58
2022-12-24T11:56:43.044Z,94.84
2022-12-24T11:59:33.256Z,94.25
2022-12-24T12:02:00.343Z,96.02
2022-12-24T12:04:25.585Z,94.62
2022-12-24T12:06:48.504Z,93.19
2022-12-24T12:09:18.980Z,92.00
2022-12-24T12:11:44.276Z,91.73
2022-12-24T12:14:09.221Z,92.22
2022-12-24T12:17:03.809Z,92.94
2022-12-24T12:19:27.965Z,92.74
2022-12-24T12:21:50.499Z,92.41
2022-12-24T12:24:32.312Z,92.36
2022-12-24T12:27:05.017Z,93.85
2022-12-24T12:29:40.210Z,93.29
2022-12-24T12:32:11.084Z,94.08
2022-12-24T12:34:59.331Z,95.80
2022-12-24T12:37:28.777Z,94.26
2022-12-24T12:39:51.091Z,94.98
2022-12-24T12:42:34.192Z,96.07
2022-12-24T12:45:07.625Z,94.88
2022-12-24T12:47:41.192Z,96.12
2022-12-24T12:50:23.117Z,96.05
2022-12-24T12:53:09.625Z,95.65
2022-12-24T12:55:49.253Z,95.73
2022-12-24T12:58:35.466Z,95.41
2022-12-24T13:01:06.590Z,94.54
2022-12-24T13:03:54.790Z,94.77
2022-12-24T13:06:37.250Z,94.39
2022-12-24T13:09:23.433Z,93.70
2022-12-24T13:12:08.187Z,93.86
2022-12-24T13:14:56.425Z,92.77
2022-12-24T13:17:27.095Z,93.94
2022-12-24T13:20:21.919Z,94.03
2022-12-24T13:23:13.604Z,95.57
2022-12-24T13:25:38.659Z,96.96
2022-12-24T13:28:24.008Z,96.74
2022-12-24T13:30:45.529Z,98.31
2022-12-24T13:33:14.449Z,99.69
2022-12-24T13:35:38.359Z,100.00
2022-12-24T13:38:28.375Z,100.00
2022-12-24T13:40:49.807Z,100.00
2022-12-24T13:43:12.527Z,100.00
2022-12-24T13:45:34.142Z,100.00
2022-12-24T13:47:57.132Z,100.00
2022-12-24T13:50:27.329Z,100.00
2022-12-24T13:52:53.755Z,100.00
2022-12-24T13:55:17.351Z,100.00
2022-12-24T13:57:48.343Z,100.00
2022-12-24T14:00:12.777Z,99.44
2022-12-24T14:02:39.664Z,99.29
2022-12-24T14:05:08.569Z,99.13
2022-12-24T14:07:30.702Z,97.83
2022-12-24T14:09:52.589Z,97.86
2022-12-24T14:12:28.580Z,97.96
2022-12-24T14:14:50.052Z,97.64
2022-12-24T14:17:20.571Z,97.14
2022-12-24T14:19:44.915Z,97.46
2022-12-24T14:22:27.974Z,96.01
2022-12-24T14:25:01.820Z,95.39
2022-12-24T14:27:36.260Z,95.20
2022-12-24T14:30:18.711Z,96.87
2022-12-24T14:32:40.931Z,97.59
2022-12-24T14:35:06.966Z,98.06
2022-12-24T14:37:34.511Z,98.73
2022-12-24T14:39:57.299Z,97.71
2022-12-24T14:42:49.993Z,98.29
2022-12-24T14:45:28.111Z,97.39
2022-12-24T14:48:11.615Z,97.21
2022-12-24T14:50:53.275Z,96.15
2022-12-24T14:53:28.411Z,95.54
2022-12-24T14:55:50.606Z,96.47
2022-12-24T14:58:31.174Z,96.22
2022-12-24T15:00:58.280Z,96.61
2022-12-24T15:03:24.028Z,96.24
2022-12-24T15:05:46.341Z,96.23
2022-12-24T15:08:19.693Z,97.13
2022-12-24T15:10:44.150Z,98.44
2022-12-24T15:13:20.688Z,98.46
2022-12-24T15:15:52.028Z,98.00
2022-12-24T15:18:16.992Z,98.65
2022-12-24T15:20:46.288Z,98.74
2022-12-24T15:23:19.279Z,98.88
2022-12-24T15:25:40.784Z,98.82
2022-12-24T15:28:02.309Z,98.51
2022-12-24T15:30:27.675Z,99.30
2022-12-24T15:32:54.444Z,99.12
2022-12-24T15:35:44.801Z,98.87
2022-12-24T15:38:25.626Z,98.99
2022-12-24T15:40:49.445Z,98.93
2022-12-24T15:43:10.957Z,99.18
2022-12-24T15:45:39.442Z,99.71
2022-12-24T15:48:12.311Z,98.42
2022-12-24T15:50:35.952Z,97.77
2022-12-24T15:53:19.842Z,97.45
2022-12-24T15:55:59.286Z,96.44
2022-12-24T15:58:27.701Z,95.66
2022-12-24T16:01:14.167Z,95.54
2022-12-24T16:03:39.246Z,94.46
2022-12-24T16:06:08.336Z,93.48
2022-12-24T16:08:41.242Z,94.82
2022-12-24T16:11:05.770Z,93.73
2022-12-24T16:13:33.494Z,94.32
2022-12-24T16:15:59.937Z,94.23
2022-12-24T16:18:52.161Z,91.96
2022-12-24T16:21:28.474Z,92.38
2022-12-24T16:23:54.108Z,92.74
2022-12-24T16:26:16.173Z,92.50
2022-12-24T16:28:37.660Z,91.05
2022-12-24T16:30:59.308Z,90.26
2022-12-24T16:33:23.004Z,90.63
2022-12-24T16:35:45.961Z,90.82
2022-12-24T16:38:08.305Z,91.24
2022-12-24T16:40:29.896Z,91.25
2022-12-24T16:43:09.892Z,91.71
2022-12-24T16:45:31.864Z,91.97
2022-12-24T16:47:53.507Z,90.18
2022-12-24T16:50:16.600Z,90.04
2022-12-24T16:52:38.094Z,90.21
2022-12-24T16:55:00.821Z,91.32
2022-12-24T16:57:24.023Z,91.63
2022-12-24T16:59:45.576Z,93.52
2022-12-24T17:02:14.405Z,94.11
2022-12-24T17:04:36.499Z,94.08
2022-12-24T17:06:58.261Z,95.57
2022-12-24T17:09:19.724Z,95.00
2022-12-24T17:11:41.166Z,95.56
2022-12-24T17:14:08.027Z,96.03
2022-12-24T17:16:30.601Z,95.44
2022-12-24T17:18:52.278Z,95.06
2022-12-24T17:21:13.948Z,96.93
2022-12-24T17:23:35.412Z,97.39
2022-12-24T17:25:58.053Z,98.67
2022-12-24T17:28:19.607Z,97.62
2022-12-24T17:30:41.194Z,96.67
2022-12-24T17:33:02.685Z,96.56
2022-12-24T17:35:24.131Z,96.17
2022-12-24T17:37:45.575Z,95.44
2022-12-24T17:40:07.770Z,95.23
2022-12-24T17:42:29.204Z,95.26
2022-12-24T17:44:50.671Z,95.02
2022-12-24T17:47:12.099Z,94.81
2022-12-24T17:49:33.722Z,94.35
2022-12-24T17:51:55.189Z,94.50
2022-12-24T17:54:16.650Z,94.29
2022-12-24T17:56:38.150Z,94.15
2022-12-24T17:58:59.690Z,93.60
2022-12-24T18:01:24.255Z,92.85
2022-12-24T18:03:47.176Z,92.76
2022-12-24T18:06:10.602Z,92.91
2022-12-24T18:08:32.399Z,92.64
2022-12-24T18:10:53.871Z,92.27
2022-12-24T18:13:19.283Z,92.38
2022-12-24T18:15:41.363Z,91.39
2022-12-24T18:18:04.048Z,92.27
2022-12-24T18:20:25.523Z,92.04
2022-12-24T18:22:47.877Z,91.92
2022-12-24T18:25:09.866Z,91.99
2022-12-24T18:27:31.309Z,92.02
2022-12-24T18:29:52.754Z,91.68
2022-12-24T18:32:16.910Z,91.61
2022-12-24T18:34:38.543Z,91.09
2022-12-24T18:37:00.111Z,91.20
2022-12-24T18:39:21.604Z,91.10
2022-12-24T18:41:43.042Z,91.59
2022-12-24T18:44:04.682Z,91.28
2022-12-24T18:46:30.236Z,91.51
2022-12-24T18:48:52.346Z,91.81
2022-12-24T18:51:14.483Z,91.72
2022-12-24T18:53:36.179Z,91.95
2022-12-24T18:56:21.772Z,92.31
2022-12-24T18:58:43.932Z,92.37
2022-12-24T19:01:17.059Z,93.04
2022-12-24T19:03:38.807Z,92.51
2022-12-24T19:06:03.536Z,92.45
2022-12-24T19:11:06.851Z,92.93
2022-12-24T19:13:28.440Z,92.52
2022-12-24T19:15:50.075Z,93.51
2022-12-24T19:18:11.622Z,92.78
2022-12-24T19:20:37.879Z,91.96
2022-12-24T19:22:59.340Z,92.18
2022-12-24T19:25:20.769Z,92.50
2022-12-24T19:27:42.245Z,92.79
2022-12-24T19:30:05.078Z,93.15
2022-12-24T19:32:26.509Z,93.81
2022-12-24T19:34:47.987Z,94.67
2022-12-24T19:37:09.508Z,94.86
2022-12-24T19:39:33.316Z,94.35
2022-12-24T19:41:55.141Z,94.29
2022-12-24T19:44:16.586Z,94.83
2022-12-24T19:46:38.282Z,94.61
2022-12-24T19:49:02.027Z,94.88
2022-12-24T19:51:24.991Z,95.82
2022-12-24T19:53:47.640Z,96.79
2022-12-24T19:56:09.486Z,99.56
2022-12-24T19:58:32.748Z,100.00
2022-12-24T20:00:55.006Z,100.00
2022-12-24T20:03:16.695Z,100.00
2022-12-24T20:05:41.742Z,100.00
2022-12-24T20:08:03.305Z,100.00
2022-12-24T20:10:24.720Z,99.76
2022-12-24T20:12:46.192Z,100.00
2022-12-24T20:15:08.359Z,99.67
2022-12-24T20:17:29.791Z,98.86
2022-12-24T20:19:51.284Z,99.00
2022-12-24T20:22:13.224Z,98.35
2022-12-24T20:24:34.707Z,98.58
2022-12-24T20:26:56.188Z,97.62
2022-12-24T20:29:17.653Z,97.92
2022-12-24T20:31:39.699Z,97.44
2022-12-24T20:34:02.449Z,96.52
2022-12-24T20:36:24.913Z,96.43
2022-12-24T20:38:46.926Z,96.04
2022-12-24T20:41:09.912Z,95.84
2022-12-24T20:43:38.369Z,95.53
2022-12-24T20:46:01.404Z,94.87
2022-12-24T20:48:23.828Z,95.92
2022-12-24T20:50:45.311Z,95.50
2022-12-24T20:53:06.809Z,95.53
2022-12-24T20:55:28.267Z,95.72
2022-12-24T20:57:51.087Z,95.76
2022-12-24T21:00:14.377Z,95.55
2022-12-24T21:02:36.002Z,95.75
2022-12-24T21:05:02.012Z,96.00
2022-12-24T21:07:24.133Z,96.48
2022-12-24T21:09:45.606Z,95.94
2022-12-24T21:12:25.791Z,96.22
2022-12-24T21:14:47.246Z,95.63
2022-12-24T21:17:15.180Z,95.48
2022-12-24T21:19:37.285Z,95.18
2022-12-24T21:21:58.806Z,95.44
2022-12-24T21:24:20.252Z,95.17
2022-12-24T21:26:41.738Z,96.02
2022-12-24T21:29:04.650Z,96.00
2022-12-24T21:31:26.369Z,95.76
2022-12-24T21:33:47.946Z,95.54
2022-12-24T21:36:11.616Z,95.22
2022-12-24T21:38:33.951Z,95.02
2022-12-24T21:41:04.310Z,94.94
2022-12-24T21:43:25.794Z,94.30
2022-12-24T21:45:49.684Z,94.75
2022-12-24T21:48:31.214Z,94.98
2022-12-24T21:50:55.598Z,94.74
2022-12-24T21:53:35.658Z,94.59
2022-12-24T21:55:57.084Z,94.97
2022-12-24T21:58:18.544Z,95.12
2022-12-24T22:00:39.988Z,94.46
2022-12-24T22:03:01.594Z,94.38
2022-12-24T22:05:26.066Z,95.13
2022-12-24T22:08:06.336Z,95.26
2022-12-24T22:10:47.179Z,95.13
2022-12-24T22:13:09.587Z,95.20
2022-12-24T22:15:31.088Z,94.86
2022-12-24T22:17:52.563Z,95.64
2022-12-24T22:20:14.047Z,95.38
2022-12-24T22:22:35.548Z,95.66
2022-12-24T22:24:57.043Z,95.54
2022-12-24T22:27:18.587Z,95.19
2022-12-24T22:29:40.092Z,95.13
2022-12-24T22:32:01.568Z,95.03
2022-12-24T22:34:23.021Z,95.42
2022-12-24T22:36:44.489Z,95.14
2022-12-24T22:39:05.940Z,94.95
2022-12-24T22:41:27.399Z,94.64
2022-12-24T22:43:49.719Z,94.25
2022-12-24T22:46:13.318Z,95.40
2022-12-24T22:48:39.031Z,95.23
2022-12-24T22:51:00.543Z,94.96
2022-12-24T22:53:22.119Z,94.93
2022-12-24T22:55:43.559Z,94.73
2022-12-24T22:58:05.053Z,94.60
2022-12-24T23:00:40.178Z,94.31
2022-12-24T23:03:01.845Z,94.05
2022-12-24T23:05:23.393Z,93.25
2022-12-24T23:07:44.916Z,93.04
2022-12-24T23:10:07.280Z,91.95
2022-12-24T23:12:47.029Z,92.20
2022-12-24T23:15:09.267Z,92.33
2022-12-24T23:17:30.713Z,92.54
2022-12-24T23:19:52.154Z,92.58
2022-12-24T23:22:13.632Z,92.34
2022-12-24T23:24:37.975Z,92.03
2022-12-24T23:27:03.138Z,92.06
2022-12-24T23:29:24.952Z,91.41
2022-12-24T23:31:46.388Z,91.34
2022-12-24T23:34:07.895Z,91.92
2022-12-24T23:36:29.756Z,91.80
2022-12-24T23:38:53.400Z,91.40
2022-12-24T23:41:17.693Z,91.63
2022-12-24T23:43:39.215Z,91.76
2022-12-24T23:46:01.287Z,91.37
2022-12-24T23:48:24.438Z,92.00
2022-12-24T23:50:46.409Z,92.49
2022-12-24T23:53:08.057Z,91.91
2022-12-24T23:55:29.481Z,92.37
2022-12-24T23:57:50.926Z,92.49
